createdAt,value
2019-05-17T00:00:48.414Z,13.68
2019-05-17T00:03:18.282Z,13.65
2019-05-17T00:05:48.024Z,13.60
2019-05-17T00:08:31.033Z,13.58
2019-05-17T00:10:49.345Z,13.58
2019-05-17T00:13:19.126Z,13.57
2019-05-17T00:15:48.840Z,13.53
2019-05-17T00:18:18.436Z,13.51
2019-05-17T00:20:48.149Z,13.55
2019-05-17T00:23:17.875Z,13.59
2019-05-17T00:25:47.496Z,13.56
2019-05-17T00:28:17.168Z,13.55
2019-05-17T00:30:47.218Z,13.50
2019-05-17T00:33:17.121Z,13.53
2019-05-17T00:35:47.032Z,13.49
2019-05-17T00:38:18.335Z,13.48
2019-05-17T00:40:48.071Z,13.41
2019-05-17T00:43:17.897Z,13.41
2019-05-17T00:45:47.634Z,13.38
2019-05-17T00:48:17.617Z,13.32
2019-05-17T00:50:53.681Z,13.28
2019-05-17T00:53:18.756Z,13.18
2019-05-17T00:55:48.485Z,13.11
2019-05-17T00:58:18.322Z,13.14
2019-05-17T01:00:48.066Z,13.08
2019-05-17T01:03:17.837Z,13.08
2019-05-17T01:05:47.634Z,13.11
2019-05-17T01:08:17.592Z,13.11
2019-05-17T01:10:47.550Z,13.08
2019-05-17T01:13:17.624Z,13.04
2019-05-17T01:15:47.590Z,12.91
2019-05-17T01:18:17.310Z,12.88
2019-05-17T01:20:47.540Z,12.87
2019-05-17T01:23:17.605Z,12.81
2019-05-17T01:25:48.114Z,12.79
2019-05-17T01:28:18.130Z,12.76
2019-05-17T01:30:47.836Z,12.74
2019-05-17T01:33:17.518Z,12.67
2019-05-17T01:35:48.769Z,12.61
2019-05-17T01:38:18.501Z,12.55
2019-05-17T01:40:48.160Z,12.49
2019-05-17T01:43:17.908Z,12.45
2019-05-17T01:45:47.997Z,12.33
2019-05-17T01:48:18.009Z,12.21
2019-05-17T01:50:47.647Z,12.13
2019-05-17T01:53:17.312Z,12.01
2019-05-17T01:55:47.583Z,11.97
2019-05-17T01:58:17.314Z,11.90
2019-05-17T02:00:47.196Z,11.83
2019-05-17T02:03:17.431Z,11.79
2019-05-17T02:05:47.487Z,11.67
2019-05-17T02:08:17.623Z,11.61
2019-05-17T02:10:47.317Z,11.52
2019-05-17T02:13:17.162Z,11.34
2019-05-17T02:15:47.120Z,11.32
2019-05-17T02:18:17.461Z,11.29
2019-05-17T02:20:47.455Z,11.29
2019-05-17T02:23:17.519Z,11.22
2019-05-17T02:25:47.441Z,11.05
2019-05-17T02:28:17.212Z,11.01
2019-05-17T02:30:47.476Z,10.98
2019-05-17T02:33:17.552Z,10.98
2019-05-17T02:35:47.331Z,10.86
2019-05-17T02:38:17.099Z,10.71
2019-05-17T02:40:46.564Z,10.69
2019-05-17T02:43:16.228Z,10.63
2019-05-17T02:45:46.061Z,10.62
2019-05-17T02:48:15.831Z,10.50
2019-05-17T02:50:48.264Z,10.40
2019-05-17T02:53:17.475Z,10.38
2019-05-17T02:55:47.238Z,10.42
2019-05-17T02:58:16.891Z,10.38
2019-05-17T03:00:46.556Z,10.35
2019-05-17T03:03:16.249Z,10.38
2019-05-17T03:05:45.927Z,10.33
2019-05-17T03:08:15.584Z,10.31
2019-05-17T03:10:45.164Z,10.31
2019-05-17T03:13:17.851Z,10.23
2019-05-17T03:15:46.122Z,10.23
2019-05-17T03:18:15.698Z,10.25
2019-05-17T03:20:45.270Z,10.20
2019-05-17T03:23:14.962Z,10.12
2019-05-17T03:25:44.616Z,10.04
2019-05-17T03:28:14.391Z,9.99
2019-05-17T03:30:46.793Z,9.95
2019-05-17T03:33:16.869Z,9.95
2019-05-17T03:35:47.788Z,9.87
2019-05-17T03:38:17.311Z,9.88
2019-05-17T03:41:07.465Z,9.87
2019-05-17T03:43:18.469Z,9.87
2019-05-17T03:45:48.215Z,9.84
2019-05-17T03:48:17.794Z,9.84
2019-05-17T03:50:47.528Z,9.84
2019-05-17T03:53:17.348Z,9.84
2019-05-17T03:55:47.165Z,9.84
2019-05-17T03:58:16.818Z,9.87
2019-05-17T04:00:46.397Z,9.89
2019-05-17T04:03:16.110Z,9.93
2019-05-17T04:05:46.863Z,9.94
2019-05-17T04:08:17.232Z,9.90
2019-05-17T04:10:47.483Z,9.90
2019-05-17T04:13:18.061Z,9.89
2019-05-17T04:15:48.337Z,9.91
2019-05-17T04:18:18.803Z,9.96
2019-05-17T04:20:52.527Z,10.00
2019-05-17T04:23:23.268Z,10.07
2019-05-17T04:25:53.116Z,10.19
2019-05-17T04:28:23.476Z,10.24
2019-05-17T04:30:54.061Z,10.34
2019-05-17T04:33:24.261Z,10.48
2019-05-17T04:35:54.977Z,10.64
2019-05-17T04:38:25.281Z,10.72
2019-05-17T04:40:55.713Z,10.78
2019-05-17T04:43:26.129Z,10.84
2019-05-17T04:45:56.482Z,10.88
2019-05-17T04:48:26.917Z,10.92
2019-05-17T04:50:57.418Z,10.97
2019-05-17T04:53:27.482Z,11.01
2019-05-17T04:55:58.047Z,11.06
2019-05-17T04:58:28.239Z,11.14
2019-05-17T05:00:58.707Z,11.24
2019-05-17T05:03:32.419Z,11.29
2019-05-17T05:06:02.936Z,11.40
2019-05-17T05:08:34.068Z,11.50
2019-05-17T05:11:04.441Z,11.57
2019-05-17T05:13:34.882Z,11.64
2019-05-17T05:16:05.412Z,11.74
2019-05-17T05:18:35.667Z,11.83
2019-05-17T05:21:05.918Z,11.95
2019-05-17T05:23:36.345Z,12.03
2019-05-17T05:26:06.925Z,12.08
2019-05-17T05:28:37.370Z,12.15
2019-05-17T05:31:07.633Z,12.28
2019-05-17T05:33:38.393Z,12.25
2019-05-17T05:36:11.046Z,12.22
2019-05-17T05:38:42.292Z,12.37
2019-05-17T05:41:13.076Z,12.48
2019-05-17T05:43:43.365Z,12.48
2019-05-17T05:46:13.838Z,12.61
2019-05-17T05:48:43.832Z,12.56
2019-05-17T05:51:14.009Z,12.51
2019-05-17T05:53:44.344Z,12.41
2019-05-17T05:56:15.283Z,12.53
2019-05-17T05:58:45.701Z,12.80
2019-05-17T06:01:16.040Z,12.90
2019-05-17T06:03:46.552Z,13.11
2019-05-17T06:06:17.003Z,13.25
2019-05-17T06:08:47.274Z,13.39
2019-05-17T06:11:17.759Z,13.57
2019-05-17T06:13:47.967Z,13.69
2019-05-17T06:16:17.939Z,13.68
2019-05-17T06:18:48.113Z,13.73
2019-05-17T06:21:18.455Z,13.74
2019-05-17T06:23:48.867Z,13.78
2019-05-17T06:26:19.208Z,13.83
2019-05-17T06:28:51.763Z,14.00
2019-05-17T06:31:20.797Z,13.75
2019-05-17T06:33:52.431Z,13.53
2019-05-17T06:36:22.973Z,13.63
2019-05-17T06:38:53.348Z,13.66
2019-05-17T06:41:23.765Z,13.59
2019-05-17T06:43:55.310Z,13.53
2019-05-17T06:46:26.133Z,13.66
2019-05-17T06:48:56.939Z,13.88
2019-05-17T06:51:27.369Z,14.01
2019-05-17T06:53:58.115Z,14.19
2019-05-17T06:56:28.438Z,14.32
2019-05-17T06:58:58.900Z,14.43
2019-05-17T07:01:29.756Z,14.60
2019-05-17T07:04:00.459Z,14.76
2019-05-17T07:06:32.789Z,14.94
2019-05-17T07:09:03.317Z,14.87
2019-05-17T07:11:33.659Z,15.22
2019-05-17T07:14:04.200Z,15.59
2019-05-17T07:16:34.598Z,15.46
2019-05-17T07:19:05.469Z,15.48
2019-05-17T07:21:35.724Z,15.66
2019-05-17T07:24:06.107Z,15.78
2019-05-17T07:26:36.391Z,15.90
2019-05-17T07:29:06.477Z,16.10
2019-05-17T07:31:36.937Z,16.06
2019-05-17T07:34:09.135Z,16.03
2019-05-17T07:36:39.775Z,16.10
2019-05-17T07:39:10.949Z,16.20
2019-05-17T07:41:41.064Z,16.06
2019-05-17T07:44:11.187Z,15.98
2019-05-17T07:46:41.716Z,15.75
2019-05-17T07:49:12.136Z,15.78
2019-05-17T07:51:42.568Z,15.70
2019-05-17T07:54:13.155Z,15.60
2019-05-17T07:56:43.650Z,15.68
2019-05-17T07:59:13.762Z,15.93
2019-05-17T08:01:43.954Z,16.05
2019-05-17T08:04:14.298Z,16.13
2019-05-17T08:06:44.626Z,16.45
2019-05-17T08:09:15.128Z,16.60
2019-05-17T08:11:45.250Z,16.50
2019-05-17T08:14:26.650Z,16.69
2019-05-17T08:16:47.299Z,16.94
2019-05-17T08:19:17.643Z,17.22
2019-05-17T08:21:50.098Z,17.29
2019-05-17T08:24:20.085Z,17.14
2019-05-17T08:26:50.413Z,17.28
2019-05-17T08:29:20.852Z,17.20
2019-05-17T08:31:51.167Z,17.20
2019-05-17T08:34:21.683Z,17.31
2019-05-17T08:36:52.043Z,17.23
2019-05-17T08:39:22.040Z,17.40
2019-05-17T08:41:52.382Z,17.62
2019-05-17T08:44:22.783Z,17.89
2019-05-17T08:46:53.270Z,17.89
2019-05-17T08:49:23.592Z,18.00
2019-05-17T08:51:54.056Z,18.09
2019-05-17T08:54:24.259Z,18.02
2019-05-17T08:56:54.667Z,18.20
2019-05-17T08:59:25.010Z,18.29
2019-05-17T09:01:55.473Z,18.18
2019-05-17T09:04:25.555Z,18.13
2019-05-17T09:06:56.029Z,18.11
2019-05-17T09:09:26.261Z,18.15
2019-05-17T09:11:56.767Z,18.27
2019-05-17T09:14:29.335Z,18.30
2019-05-17T09:17:00.441Z,18.39
2019-05-17T09:19:30.145Z,18.37
2019-05-17T09:22:00.617Z,18.29
2019-05-17T09:24:30.771Z,18.35
2019-05-17T09:27:01.364Z,18.29
2019-05-17T09:29:31.552Z,18.40
2019-05-17T09:32:01.640Z,18.37
2019-05-17T09:34:32.116Z,18.19
2019-05-17T09:37:02.302Z,18.29
2019-05-17T09:39:32.740Z,18.39
2019-05-17T09:42:02.856Z,18.35
2019-05-17T09:44:33.252Z,18.35
2019-05-17T09:47:03.671Z,18.46
2019-05-17T09:49:34.038Z,18.47
2019-05-17T09:52:04.325Z,18.40
2019-05-17T09:54:42.360Z,18.58
2019-05-17T09:57:06.391Z,18.73
2019-05-17T09:59:36.778Z,18.70
2019-05-17T10:02:09.414Z,18.89
2019-05-17T10:04:39.609Z,19.18
2019-05-17T10:07:10.160Z,19.40
2019-05-17T10:09:40.803Z,19.52
2019-05-17T10:12:11.302Z,19.64
2019-05-17T10:14:41.644Z,19.87
2019-05-17T10:17:12.027Z,20.00
2019-05-17T10:19:42.483Z,19.86
2019-05-17T10:22:12.593Z,20.00
2019-05-17T10:24:42.971Z,20.32
2019-05-17T10:27:14.984Z,20.59
2019-05-17T10:29:44.708Z,20.53
2019-05-17T10:32:16.161Z,20.17
2019-05-17T10:34:46.532Z,19.90
2019-05-17T10:37:20.326Z,19.87
2019-05-17T10:39:52.442Z,20.03
2019-05-17T10:42:22.674Z,20.56
2019-05-17T10:44:54.767Z,20.67
2019-05-17T10:47:24.078Z,20.41
2019-05-17T10:49:54.283Z,20.28
2019-05-17T10:52:24.822Z,20.65
2019-05-17T10:54:55.305Z,20.73
2019-05-17T10:57:25.679Z,20.69
2019-05-17T10:59:56.041Z,20.54
2019-05-17T11:02:26.385Z,20.55
2019-05-17T11:04:56.935Z,20.62
2019-05-17T11:07:27.289Z,20.53
2019-05-17T11:09:59.938Z,20.44
2019-05-17T11:12:29.425Z,20.63
2019-05-17T11:15:10.523Z,20.80
2019-05-17T11:17:31.534Z,20.77
2019-05-17T11:20:02.133Z,20.83
2019-05-17T11:22:32.657Z,20.78
2019-05-17T11:25:03.151Z,20.81
2019-05-17T11:27:33.786Z,20.86
2019-05-17T11:30:05.636Z,20.86
2019-05-17T11:32:35.893Z,20.86
2019-05-17T11:35:07.069Z,20.95
2019-05-17T11:37:37.505Z,20.81
2019-05-17T11:40:09.736Z,20.74
2019-05-17T11:42:40.371Z,20.60
2019-05-17T11:45:26.304Z,20.71
2019-05-17T11:47:42.763Z,20.63
2019-05-17T11:50:13.291Z,20.69
2019-05-17T11:52:43.672Z,20.75
2019-05-17T11:55:13.894Z,20.72
2019-05-17T11:57:44.176Z,20.79
2019-05-17T12:00:16.493Z,20.86
2019-05-17T12:02:46.514Z,20.87
2019-05-17T12:05:16.913Z,20.92
2019-05-17T12:07:47.357Z,20.98
2019-05-17T12:10:17.821Z,20.99
2019-05-17T12:12:48.104Z,20.69
2019-05-17T12:15:19.073Z,20.77
2019-05-17T12:17:49.386Z,20.79
2019-05-17T12:20:20.358Z,20.93
2019-05-17T12:22:50.540Z,20.96
2019-05-17T12:25:20.587Z,21.38
2019-05-17T12:27:51.202Z,22.01
2019-05-17T12:30:23.191Z,22.15
2019-05-17T12:32:53.561Z,22.39
2019-05-17T12:35:24.348Z,22.81
2019-05-17T12:37:54.639Z,22.68
2019-05-17T12:40:25.102Z,22.90
2019-05-17T12:42:55.323Z,23.06
2019-05-17T12:45:25.761Z,23.10
2019-05-17T12:47:56.105Z,22.90
2019-05-17T12:50:26.280Z,23.27
2019-05-17T12:52:57.022Z,23.33
2019-05-17T12:55:27.456Z,23.19
2019-05-17T12:57:57.933Z,22.82
2019-05-17T13:00:28.515Z,22.79
2019-05-17T13:02:58.879Z,22.75
2019-05-17T13:05:29.219Z,22.60
2019-05-17T13:07:59.415Z,22.53
2019-05-17T13:10:30.007Z,22.53
2019-05-17T13:13:00.319Z,22.61
2019-05-17T13:15:30.806Z,22.49
2019-05-17T13:18:01.343Z,22.59
2019-05-17T13:20:31.616Z,22.33
2019-05-17T13:23:01.975Z,22.37
2019-05-17T13:25:32.512Z,22.46
2019-05-17T13:28:02.987Z,22.45
2019-05-17T13:30:33.325Z,22.65
2019-05-17T13:33:03.644Z,22.85
2019-05-17T13:35:34.135Z,22.93
2019-05-17T13:38:04.267Z,22.75
2019-05-17T13:40:39.579Z,22.70
2019-05-17T13:43:05.550Z,22.41
2019-05-17T13:45:36.126Z,22.59
2019-05-17T13:48:06.610Z,23.33
2019-05-17T13:50:37.111Z,24.03
2019-05-17T13:53:07.475Z,23.80
2019-05-17T13:55:37.907Z,23.76
2019-05-17T13:58:08.304Z,23.96
2019-05-17T14:00:38.752Z,24.09
2019-05-17T14:03:09.374Z,24.04
2019-05-17T14:05:39.679Z,23.85
2019-05-17T14:08:10.121Z,23.95
2019-05-17T14:10:40.487Z,23.90
2019-05-17T14:13:10.960Z,23.89
2019-05-17T14:15:41.146Z,24.40
2019-05-17T14:18:11.392Z,24.38
2019-05-17T14:20:41.830Z,24.66
2019-05-17T14:23:11.999Z,24.11
2019-05-17T14:25:42.387Z,23.83
2019-05-17T14:28:13.084Z,23.77
2019-05-17T14:30:43.523Z,23.79
2019-05-17T14:33:13.871Z,23.73
2019-05-17T14:35:43.857Z,24.20
2019-05-17T14:38:13.854Z,24.23
2019-05-17T14:41:05.658Z,23.83
2019-05-17T14:43:16.041Z,23.71
2019-05-17T14:45:46.566Z,23.55
2019-05-17T14:48:17.134Z,23.39
2019-05-17T14:50:47.367Z,23.52
2019-05-17T14:53:17.925Z,23.83
2019-05-17T14:55:48.062Z,25.06
2019-05-17T14:58:18.757Z,25.52
2019-05-17T15:00:49.240Z,25.27
2019-05-17T15:03:19.461Z,25.42
2019-05-17T15:05:50.240Z,25.53
2019-05-17T15:08:20.598Z,25.68
2019-05-17T15:10:50.677Z,25.73
2019-05-17T15:13:20.965Z,25.25
2019-05-17T15:15:51.161Z,24.97
2019-05-17T15:18:21.642Z,24.73
2019-05-17T15:20:51.956Z,24.49
2019-05-17T15:23:22.149Z,24.29
2019-05-17T15:25:52.440Z,23.98
2019-05-17T15:28:22.741Z,23.77
2019-05-17T15:30:53.219Z,23.66
2019-05-17T15:33:23.344Z,23.70
2019-05-17T15:35:53.408Z,23.90
2019-05-17T15:38:23.746Z,24.07
2019-05-17T15:40:54.120Z,24.60
2019-05-17T15:43:24.583Z,25.32
2019-05-17T15:45:54.787Z,26.34
2019-05-17T15:48:25.601Z,27.17
2019-05-17T15:50:56.032Z,27.71
2019-05-17T15:53:26.126Z,27.48
2019-05-17T15:55:56.420Z,26.91
2019-05-17T15:58:26.890Z,26.31
2019-05-17T16:00:57.474Z,25.68
2019-05-17T16:03:27.914Z,25.25
2019-05-17T16:05:58.237Z,24.89
2019-05-17T16:08:29.733Z,24.67
2019-05-17T16:11:00.107Z,24.26
2019-05-17T16:13:30.221Z,24.03
2019-05-17T16:16:00.694Z,23.87
2019-05-17T16:18:30.844Z,23.65
2019-05-17T16:21:01.120Z,23.53
2019-05-17T16:23:31.524Z,23.39
2019-05-17T16:26:01.865Z,23.25
2019-05-17T16:28:32.299Z,23.13
2019-05-17T16:31:02.518Z,23.07
2019-05-17T16:33:32.821Z,23.06
2019-05-17T16:36:03.052Z,22.92
2019-05-17T16:38:33.264Z,23.00
2019-05-17T16:41:03.454Z,23.42
2019-05-17T16:43:34.748Z,24.04
2019-05-17T16:46:05.352Z,24.96
2019-05-17T16:48:35.639Z,25.69
2019-05-17T16:51:06.931Z,26.02
2019-05-17T16:53:37.347Z,26.56
2019-05-17T16:56:07.773Z,26.44
2019-05-17T16:58:38.203Z,26.11
2019-05-17T17:01:08.432Z,25.64
2019-05-17T17:03:44.366Z,24.92
2019-05-17T17:06:11.094Z,24.79
2019-05-17T17:08:43.510Z,24.37
2019-05-17T17:11:13.713Z,24.17
2019-05-17T17:13:43.821Z,23.84
2019-05-17T17:16:14.125Z,23.62
2019-05-17T17:18:44.530Z,23.31
2019-05-17T17:21:15.177Z,22.99
2019-05-17T17:23:45.736Z,22.72
2019-05-17T17:26:16.315Z,22.48
2019-05-17T17:28:46.749Z,22.64
2019-05-17T17:31:18.539Z,22.89
2019-05-17T17:33:48.808Z,23.09
2019-05-17T17:36:19.605Z,23.15
2019-05-17T17:38:50.041Z,23.06
2019-05-17T17:41:20.448Z,23.07
2019-05-17T17:43:58.444Z,23.02
2019-05-17T17:46:22.932Z,22.92
2019-05-17T17:48:53.291Z,22.90
2019-05-17T17:51:23.340Z,22.83
2019-05-17T17:53:54.032Z,22.69
2019-05-17T17:56:24.690Z,22.57
2019-05-17T17:58:54.744Z,22.35
2019-05-17T18:01:25.362Z,22.12
2019-05-17T18:03:55.897Z,21.91
2019-05-17T18:06:26.061Z,21.63
2019-05-17T18:08:56.441Z,21.45
2019-05-17T18:11:26.847Z,21.20
2019-05-17T18:13:57.318Z,20.98
2019-05-17T18:16:27.489Z,20.88
2019-05-17T18:18:57.801Z,20.74
2019-05-17T18:21:28.823Z,20.67
2019-05-17T18:23:59.126Z,20.63
2019-05-17T18:26:29.442Z,20.53
2019-05-17T18:28:59.893Z,20.41
2019-05-17T18:31:30.362Z,20.32
2019-05-17T18:34:00.759Z,20.24
2019-05-17T18:36:31.366Z,20.27
2019-05-17T18:39:05.023Z,20.11
2019-05-17T18:41:35.575Z,19.94
2019-05-17T18:44:06.089Z,19.89
2019-05-17T18:46:36.365Z,19.82
2019-05-17T18:49:06.707Z,19.62
2019-05-17T18:51:36.988Z,19.60
2019-05-17T18:54:08.650Z,19.61
2019-05-17T18:56:38.823Z,19.51
2019-05-17T18:59:09.142Z,19.36
2019-05-17T19:01:39.577Z,19.29
2019-05-17T19:04:09.676Z,19.25
2019-05-17T19:06:39.840Z,19.18
2019-05-17T19:09:10.282Z,19.11
2019-05-17T19:11:40.534Z,18.95
2019-05-17T19:14:10.762Z,18.82
2019-05-17T19:16:41.104Z,18.69
2019-05-17T19:19:11.444Z,18.59
2019-05-17T19:21:41.900Z,18.52
2019-05-17T19:24:12.231Z,18.48
2019-05-17T19:26:42.445Z,18.44
2019-05-17T19:29:12.623Z,18.18
2019-05-17T19:31:43.005Z,18.08
2019-05-17T19:34:12.680Z,18.06
2019-05-17T19:36:42.510Z,17.94
2019-05-17T19:39:12.216Z,17.82
2019-05-17T19:41:42.131Z,17.74
2019-05-17T19:44:11.950Z,17.69
2019-05-17T19:46:41.899Z,17.65
2019-05-17T19:49:11.573Z,17.63
2019-05-17T19:51:41.395Z,17.96
2019-05-17T19:54:10.241Z,17.97
2019-05-17T19:56:39.960Z,17.90
2019-05-17T19:59:09.805Z,17.82
2019-05-17T20:01:39.408Z,17.80
2019-05-17T20:04:09.187Z,17.75
2019-05-17T20:06:38.840Z,17.75
2019-05-17T20:09:08.816Z,17.71
2019-05-17T20:11:38.530Z,17.59
2019-05-17T20:14:08.183Z,17.43
2019-05-17T20:16:37.818Z,17.42
2019-05-17T20:19:07.407Z,17.39
2019-05-17T20:21:37.100Z,17.31
2019-05-17T20:24:06.734Z,17.23
2019-05-17T20:26:35.581Z,17.21
2019-05-17T20:29:05.438Z,17.16
2019-05-17T20:31:34.353Z,17.12
2019-05-17T20:34:04.180Z,17.08
2019-05-17T20:36:33.838Z,17.07
2019-05-17T20:39:04.829Z,17.06
2019-05-17T20:41:34.646Z,17.05
2019-05-17T20:44:04.367Z,17.07
2019-05-17T20:46:34.050Z,17.08
2019-05-17T20:49:03.821Z,17.14
2019-05-17T20:51:33.540Z,17.44
2019-05-17T20:54:03.269Z,17.39
2019-05-17T20:56:33.488Z,17.30
2019-05-17T20:59:03.292Z,17.34
2019-05-17T21:01:33.023Z,17.22
2019-05-17T21:04:02.739Z,17.28
2019-05-17T21:06:32.435Z,17.36
2019-05-17T21:09:02.176Z,17.22
2019-05-17T21:11:31.898Z,16.96
2019-05-17T21:14:01.647Z,16.99
2019-05-17T21:16:31.258Z,16.63
2019-05-17T21:19:00.827Z,16.29
2019-05-17T21:21:30.579Z,16.10
2019-05-17T21:24:00.299Z,16.01
2019-05-17T21:26:30.396Z,15.72
2019-05-17T21:28:59.964Z,15.58
2019-05-17T21:31:29.526Z,15.42
2019-05-17T21:33:59.225Z,15.37
2019-05-17T21:36:29.009Z,15.27
2019-05-17T21:38:58.679Z,14.87
2019-05-17T21:41:28.390Z,14.85
2019-05-17T21:43:58.089Z,14.86
2019-05-17T21:46:27.877Z,14.87
2019-05-17T21:48:57.581Z,14.96
2019-05-17T21:51:27.248Z,15.03
2019-05-17T21:53:56.915Z,15.11
2019-05-17T21:56:26.634Z,14.91
2019-05-17T21:58:55.450Z,14.87
2019-05-17T22:01:27.227Z,14.78
2019-05-17T22:03:56.912Z,14.89
2019-05-17T22:06:26.639Z,14.77
2019-05-17T22:08:56.220Z,14.70
2019-05-17T22:11:25.950Z,14.78
2019-05-17T22:13:55.614Z,14.68
2019-05-17T22:16:25.334Z,14.62
2019-05-17T22:18:55.055Z,14.60
2019-05-17T22:21:24.721Z,14.87
2019-05-17T22:23:54.355Z,14.68
2019-05-17T22:26:23.972Z,14.40
2019-05-17T22:28:53.752Z,14.44
2019-05-17T22:31:23.415Z,14.26
2019-05-17T22:33:53.246Z,14.27
2019-05-17T22:36:22.895Z,14.21
2019-05-17T22:38:52.581Z,14.17
2019-05-17T22:41:22.283Z,14.25
2019-05-17T22:43:52.028Z,14.27
2019-05-17T22:46:34.996Z,14.28
2019-05-17T22:48:53.223Z,14.43
2019-05-17T22:51:22.859Z,14.52
2019-05-17T22:53:52.499Z,14.57
2019-05-17T22:56:22.230Z,14.61
2019-05-17T22:58:53.099Z,14.63
2019-05-17T23:01:22.665Z,14.63
2019-05-17T23:03:51.521Z,14.56
2019-05-17T23:06:21.271Z,14.55
2019-05-17T23:08:50.984Z,14.53
2019-05-17T23:11:20.637Z,14.41
2019-05-17T23:13:50.318Z,14.45
2019-05-17T23:16:20.110Z,14.49
2019-05-17T23:19:08.382Z,14.46
2019-05-17T23:21:38.338Z,14.50
2019-05-17T23:24:08.157Z,14.48
2019-05-17T23:26:37.790Z,14.45
2019-05-17T23:29:07.690Z,14.43
2019-05-17T23:31:37.389Z,14.39
2019-05-17T23:34:07.129Z,14.34
2019-05-17T23:36:36.826Z,14.27
2019-05-17T23:39:07.467Z,14.33
2019-05-17T23:41:37.131Z,14.28
2019-05-17T23:44:06.815Z,14.58
2019-05-17T23:46:36.409Z,14.37
2019-05-17T23:49:06.117Z,14.34
2019-05-17T23:51:35.874Z,14.35
2019-05-17T23:54:05.603Z,14.32
2019-05-17T23:56:36.977Z,14.25
2019-05-17T23:59:06.653Z,14.15
